Time;durP1;ratioP1;P1;durP2;ratioP2;P2;SDS_P1;SDS_P2;PMS_P1;PMS_P2;Temp;Humidity;BMP_temperature;BMP_pressure;BME280_temperature;BME280_humidity;BME280_pressure;Samples;Min_cycle;Max_cycle;Signal;HPM_P1;HPM_P2
2023/08/17 00:01:26;;;;;;;16.95;12.68;;;;;;;19.67;100.00;101116.22;5042789;28;20049;-83
2023/08/17 00:04:15;;;;;;;16.50;12.63;;;;;;;19.57;100.00;101110.47;5043482;28;20472;-82
2023/08/17 00:06:41;;;;;;;13.98;12.48;;;;;;;19.62;100.00;101131.94;5070605;22;20073;-81
2023/08/17 00:09:12;;;;;;;16.98;12.73;;;;;;;19.65;100.00;101129.69;5029843;28;20046;-81
2023/08/17 00:11:39;;;;;;;16.63;12.48;;;;;;;19.65;100.00;101134.19;5035552;28;20064;-82
2023/08/17 00:14:07;;;;;;;16.88;12.10;;;;;;;19.68;100.00;101139.09;5040927;28;20916;-80
2023/08/17 00:16:35;;;;;;;16.02;12.13;;;;;;;19.65;100.00;101137.66;5029988;28;20073;-81
2023/08/17 00:19:14;;;;;;;15.02;11.45;;;;;;;19.56;100.00;101114.97;5029665;28;20061;-83
2023/08/17 00:21:46;;;;;;;12.50;11.07;;;;;;;19.50;100.00;101124.53;5031966;28;20508;-83
2023/08/17 00:24:18;;;;;;;15.07;11.77;;;;;;;19.51;100.00;101128.84;5025903;28;20559;-82
2023/08/17 00:27:03;;;;;;;15.88;11.43;;;;;;;19.45;100.00;101134.94;5027503;28;20050;-81
2023/08/17 00:29:35;;;;;;;13.40;10.85;;;;;;;19.46;100.00;101138.41;5026207;28;20215;-80
2023/08/17 00:32:01;;;;;;;14.70;10.57;;;;;;;19.40;100.00;101137.38;5024598;28;20464;-81
2023/08/17 00:34:28;;;;;;;14.45;10.75;;;;;;;19.34;100.00;101138.19;5023828;28;20080;-82
2023/08/17 00:36:55;;;;;;;15.10;10.70;;;;;;;19.25;100.00;101142.06;5024184;28;20081;-81
2023/08/17 00:39:21;;;;;;;13.52;10.52;;;;;;;19.14;100.00;101143.44;5025467;28;20050;-81
2023/08/17 00:41:48;;;;;;;14.90;10.75;;;;;;;19.18;100.00;101143.88;5025897;28;20497;-81
2023/08/17 00:44:18;;;;;;;16.05;10.38;;;;;;;19.14;100.00;101146.09;5024371;28;20113;-82
2023/08/17 00:46:46;;;;;;;17.00;10.65;;;;;;;19.20;100.00;101144.47;5021755;28;20054;-84
2023/08/17 00:49:13;;;;;;;11.68;10.40;;;;;;;19.23;100.00;101146.75;5026170;28;20054;-80
2023/08/17 00:51:40;;;;;;;12.95;10.13;;;;;;;19.26;100.00;101143.69;5022078;28;20050;-81
2023/08/17 00:54:08;;;;;;;14.93;10.07;;;;;;;19.28;100.00;101146.13;5033517;28;20132;-82
2023/08/17 00:56:34;;;;;;;12.52;10.52;;;;;;;19.33;100.00;101141.88;5033512;28;20045;-82
2023/08/17 00:59:01;;;;;;;12.38;10.35;;;;;;;19.34;100.00;101140.03;5030838;28;20050;-83
2023/08/17 01:01:30;;;;;;;12.10;10.38;;;;;;;19.24;100.00;101119.19;5026548;28;20134;-82
2023/08/17 01:04:00;;;;;;;11.98;10.13;;;;;;;19.09;100.00;101102.63;5026099;28;20052;-83
2023/08/17 01:06:27;;;;;;;12.00;10.07;;;;;;;19.06;100.00;101114.44;5026591;28;20089;-82
2023/08/17 01:08:55;;;;;;;15.15;10.40;;;;;;;19.18;100.00;101126.13;5028435;28;20038;-82
2023/08/17 01:11:33;;;;;;;12.60;10.10;;;;;;;19.06;100.00;101114.44;5024145;28;20149;-82
2023/08/17 01:14:06;;;;;;;12.68;10.30;;;;;;;19.14;100.00;101126.72;5026864;28;20121;-83
2023/08/17 01:16:38;;;;;;;12.38;10.45;;;;;;;19.00;100.00;101123.19;5025879;28;20133;-81
2023/08/17 01:19:11;;;;;;;12.55;10.50;;;;;;;19.04;100.00;101120.97;5029397;28;20096;-84
2023/08/17 01:21:42;;;;;;;14.30;11.75;;;;;;;18.99;100.00;101123.38;5035289;28;20057;-82
2023/08/17 01:24:12;;;;;;;14.43;10.75;;;;;;;19.04;100.00;101121.78;5036177;28;20034;-84
2023/08/17 01:26:47;;;;;;;15.80;11.52;;;;;;;19.01;100.00;101131.97;5037472;28;20046;-80
2023/08/17 01:29:14;;;;;;;13.73;10.98;;;;;;;18.90;100.00;101110.31;5032977;28;20046;-80
2023/08/17 01:31:47;;;;;;;14.20;12.02;;;;;;;18.94;100.00;101118.69;5035819;28;20061;-83
2023/08/17 01:34:19;;;;;;;13.38;11.98;;;;;;;18.94;100.00;101120.50;5035997;28;20050;-81
2023/08/17 01:39:38;;;;;;;15.15;12.07;;;;;;;18.92;100.00;101115.41;5020793;28;20085;-84
2023/08/17 01:42:19;;;;;;;14.20;12.20;;;;;;;18.93;100.00;101118.88;5023740;28;20125;-82
2023/08/17 01:44:45;;;;;;;13.00;11.68;;;;;;;18.80;100.00;101109.88;5025278;28;20085;-80
2023/08/17 01:47:38;;;;;;;16.98;13.73;;;;;;;18.84;100.00;101111.13;5019215;28;20054;-83
2023/08/17 01:50:08;;;;;;;;;;;;;;;18.90;100.00;101126.22;5029394;28;20057;-82
2023/08/17 01:52:35;;;;;;;14.48;12.98;;;;;;;18.78;100.00;101117.22;5028390;28;20330;-80
2023/08/17 01:55:03;;;;;;;15.95;14.25;;;;;;;18.80;100.00;101117.84;5029859;28;20165;-82
2023/08/17 01:57:32;;;;;;;15.43;13.93;;;;;;;18.88;100.00;101122.97;5028735;28;20053;-80
2023/08/17 02:00:01;;;;;;;20.00;14.75;;;;;;;18.85;100.00;101136.63;5027552;28;20049;-82
2023/08/17 02:02:28;;;;;;;20.52;15.32;;;;;;;18.86;100.00;101134.78;5024195;28;20058;-82
2023/08/17 02:04:54;;;;;;;19.38;14.63;;;;;;;18.86;100.00;101125.00;5019888;28;20073;-81
2023/08/17 02:07:21;;;;;;;15.95;14.40;;;;;;;18.78;100.00;101125.16;5019505;28;20130;-82
2023/08/17 02:09:47;;;;;;;16.83;14.38;;;;;;;18.80;100.00;101125.78;5021329;28;20616;-80
2023/08/17 02:12:15;;;;;;;17.25;15.50;;;;;;;18.74;100.00;101123.94;5025503;28;20050;-81
2023/08/17 02:14:42;;;;;;;15.88;14.27;;;;;;;18.68;100.00;101127.38;5024810;28;20077;-81
2023/08/17 02:17:09;;;;;;;16.48;14.82;;;;;;;18.67;100.00;101122.25;5026965;28;20084;-80
2023/08/17 02:19:35;;;;;;;15.90;14.30;;;;;;;18.74;100.00;101123.94;5026493;28;20038;-82
2023/08/17 02:22:05;;;;;;;19.70;14.30;;;;;;;18.79;100.00;101121.50;5026892;28;20113;-82
2023/08/17 02:24:31;;;;;;;16.25;14.15;;;;;;;18.89;100.00;101119.31;5029524;28;20074;-82
2023/08/17 02:26:58;;;;;;;15.57;13.98;;;;;;;18.88;100.00;101111.56;5029028;28;20054;-81
2023/08/17 02:29:26;;;;;;;18.88;14.50;;;;;;;18.88;100.00;101104.41;5030961;28;20129;-81
2023/08/17 02:31:52;;;;;;;16.73;14.50;;;;;;;18.96;100.00;101113.19;5023053;28;20061;-82
2023/08/17 02:34:19;;;;;;;15.05;13.52;;;;;;;18.92;100.00;101103.97;5029698;28;20057;-80
2023/08/17 02:36:45;;;;;;;17.20;14.07;;;;;;;18.93;100.00;101105.63;5027958;28;20088;-81
2023/08/17 02:39:12;;;;;;;16.42;14.35;;;;;;;18.96;100.00;101108.69;5026556;28;20050;-80
2023/08/17 02:41:39;;;;;;;15.55;13.95;;;;;;;18.99;100.00;101103.00;5019177;28;20050;-80
2023/08/17 02:44:06;;;;;;;15.70;14.15;;;;;;;19.01;100.00;101098.31;5021877;28;20064;-78
2023/08/17 02:46:34;;;;;;;16.80;13.90;;;;;;;19.02;100.00;101102.59;5023902;28;20560;-81
2023/08/17 02:49:00;;;;;;;14.82;13.35;;;;;;;19.02;100.00;101091.16;5023608;28;20133;-79
2023/08/17 02:51:30;;;;;;;14.90;13.40;;;;;;;19.08;100.00;101091.19;5021170;28;20520;-81
2023/08/17 02:53:56;;;;;;;14.85;13.35;;;;;;;19.10;100.00;101088.34;5020524;28;20050;-80
2023/08/17 02:56:23;;;;;;;14.40;12.75;;;;;;;19.11;100.00;101080.19;5024985;28;20154;-81
2023/08/17 02:58:49;;;;;;;15.38;12.68;;;;;;;19.12;100.00;101075.69;5026827;28;20041;-82
2023/08/17 03:01:16;;;;;;;13.85;12.45;;;;;;;19.09;100.00;101073.44;5027173;28;20081;-81
2023/08/17 03:03:44;;;;;;;15.07;13.50;;;;;;;19.10;100.00;101078.53;5017999;28;20084;-81
2023/08/17 03:06:11;;;;;;;15.20;13.70;;;;;;;19.07;100.00;101075.47;5018589;28;20053;-81
2023/08/17 03:08:37;;;;;;;15.07;13.68;;;;;;;19.09;100.00;101082.22;5028287;28;20084;-82
2023/08/17 03:11:07;;;;;;;18.90;14.00;;;;;;;19.06;100.00;101077.31;5025465;28;20080;-82
2023/08/17 03:13:33;;;;;;;18.00;14.18;;;;;;;18.98;100.00;101074.03;5024979;28;20145;-80
2023/08/17 03:16:01;;;;;;;15.65;14.15;;;;;;;18.98;100.00;101074.84;5024822;28;20133;-81
2023/08/17 03:18:28;;;;;;;15.80;14.23;;;;;;;19.00;100.00;101074.63;5016586;28;20533;-80
2023/08/17 03:20:58;;;;;;;16.67;14.68;;;;;;;18.99;100.00;101075.66;5018499;28;20089;-81
2023/08/17 03:23:25;;;;;;;19.48;14.70;;;;;;;18.97;100.00;101083.00;5015085;28;20053;-82
2023/08/17 03:25:53;;;;;;;16.48;14.77;;;;;;;18.95;100.00;101074.41;5022260;28;20104;-83
2023/08/17 03:28:19;;;;;;;16.75;13.52;;;;;;;18.93;100.00;101082.56;5022416;28;20073;-81
2023/08/17 03:30:46;;;;;;;15.35;13.77;;;;;;;18.91;100.00;101081.94;5012442;28;20085;-82
2023/08/17 03:33:20;;;;;;;14.90;13.43;;;;;;;18.83;100.00;101069.72;5011359;28;20096;-81
2023/08/17 03:35:47;;;;;;;14.43;13.02;;;;;;;18.77;100.00;101072.34;5011094;28;20228;-81
2023/08/17 03:38:15;;;;;;;13.35;12.10;;;;;;;18.74;100.00;101081.50;5011984;28;20077;-82
2023/08/17 03:40:51;;;;;;;15.38;11.88;;;;;;;18.74;100.00;101078.84;5012422;28;20077;-83
2023/08/17 03:43:25;;;;;;;14.35;12.25;;;;;;;18.78;100.00;101082.75;5011498;28;20128;-82
2023/08/17 03:45:54;;;;;;;12.73;11.52;;;;;;;18.78;100.00;101093.34;5018181;28;20426;-83
2023/08/17 03:48:22;;;;;;;14.15;11.80;;;;;;;18.63;100.00;101074.13;5022701;28;20084;-81
2023/08/17 03:51:06;;;;;;;13.65;11.77;;;;;;;18.72;100.00;101088.84;5020472;28;20037;-82
2023/08/17 03:53:35;;;;;;;13.85;11.65;;;;;;;18.64;100.00;101067.81;5014637;28;20053;-82
2023/08/17 03:56:10;;;;;;;12.57;11.38;;;;;;;18.74;100.00;101096.59;5019042;28;20058;-79
2023/08/17 03:58:43;;;;;;;13.55;12.25;;;;;;;18.69;100.00;101097.19;5020295;28;20046;-82
2023/08/17 04:01:20;;;;;;;13.10;11.70;;;;;;;18.54;100.00;101084.03;5010911;28;20085;-81
2023/08/17 04:06:57;;;;;;;13.18;11.80;;;;;;;18.66;100.00;101108.19;5016900;28;20093;-81
2023/08/17 04:09:38;;;;;;;18.75;13.88;;;;;;;18.61;100.00;101110.59;5021632;28;20061;-82
2023/08/17 04:12:18;;;;;;;15.55;13.80;;;;;;;18.48;100.00;101099.91;5024405;28;20046;-81
2023/08/17 04:15:00;;;;;;;17.45;13.40;;;;;;;18.57;100.00;101114.63;5021644;28;20062;-81
2023/08/17 04:17:42;;;;;;;17.05;14.13;;;;;;;18.43;100.00;101118.25;5018423;28;20049;-81
2023/08/17 04:20:12;;;;;;;17.63;14.43;;;;;;;18.38;100.00;101120.66;5016438;28;20054;-80
2023/08/17 04:22:39;;;;;;;16.08;13.98;;;;;;;18.29;100.00;101112.03;5014821;28;20078;-80
2023/08/17 04:25:12;;;;;;;15.85;14.18;;;;;;;18.30;100.00;101113.69;5004357;28;20114;-82
2023/08/17 04:27:39;;;;;;;15.88;13.98;;;;;;;18.30;100.00;101121.63;5005449;28;20058;-81
2023/08/17 04:30:10;;;;;;;17.25;13.82;;;;;;;18.22;100.00;101125.25;5010379;28;20080;-81
2023/08/17 04:32:36;;;;;;;21.88;14.55;;;;;;;18.23;100.00;101136.66;5015259;28;20081;-80
2023/08/17 04:35:03;;;;;;;15.98;13.90;;;;;;;18.24;100.00;101128.53;5010164;28;20109;-80
2023/08/17 04:37:30;;;;;;;18.52;13.45;;;;;;;18.22;100.00;101133.19;5008072;28;20137;-81
2023/08/17 04:39:56;;;;;;;14.38;12.88;;;;;;;18.21;100.00;101138.69;5015012;28;20042;-82
2023/08/17 04:42:25;;;;;;;18.35;13.85;;;;;;;18.15;100.00;101134.16;5016844;28;20464;-81
2023/08/17 04:44:52;;;;;;;15.68;13.98;;;;;;;18.20;100.00;101135.22;5019133;28;20054;-81
2023/08/17 04:47:18;;;;;;;16.48;14.20;;;;;;;18.26;100.00;101138.94;5019288;28;20259;-82
2023/08/17 04:49:45;;;;;;;18.33;14.10;;;;;;;18.26;100.00;101132.81;5011838;28;20476;-82
2023/08/17 04:52:11;;;;;;;16.67;13.50;;;;;;;18.34;100.00;101145.91;5009280;28;20182;-81
2023/08/17 04:54:38;;;;;;;19.38;14.25;;;;;;;18.35;100.00;101144.91;5015314;28;20088;-80
2023/08/17 04:57:05;;;;;;;17.95;13.73;;;;;;;18.34;100.00;101143.25;5015052;28;20077;-80
2023/08/17 04:59:33;;;;;;;16.52;13.70;;;;;;;18.30;100.00;101149.94;5020091;28;20046;-80
2023/08/17 05:02:00;;;;;;;16.55;13.90;;;;;;;18.29;100.00;101146.50;5019525;28;20109;-80
2023/08/17 05:04:26;;;;;;;18.33;14.48;;;;;;;18.27;100.00;101145.03;5023781;28;20084;-80
2023/08/17 05:06:53;;;;;;;18.58;15.85;;;;;;;18.22;100.00;101148.28;5021601;28;20562;-80
2023/08/17 05:09:20;;;;;;;19.33;16.65;;;;;;;18.12;100.00;101148.59;5027216;28;20050;-79
2023/08/17 05:11:46;;;;;;;19.08;15.82;;;;;;;18.26;100.00;101152.16;5028484;28;20060;-80
2023/08/17 05:14:13;;;;;;;21.67;16.42;;;;;;;18.23;100.00;101157.84;5021897;28;20491;-80
2023/08/17 05:16:41;;;;;;;18.08;15.88;;;;;;;18.15;100.00;101152.69;5023983;28;20053;-80
2023/08/17 05:19:08;;;;;;;18.60;16.02;;;;;;;18.26;100.00;101160.13;5025907;28;20073;-80
2023/08/17 05:21:36;;;;;;;17.27;15.45;;;;;;;18.39;100.00;101154.09;5025782;28;20163;-80
2023/08/17 05:24:02;;;;;;;16.77;14.50;;;;;;;18.41;100.00;101163.50;5025603;28;20049;-80
2023/08/17 05:26:29;;;;;;;17.67;15.07;;;;;;;18.44;100.00;101163.06;5025564;28;20081;-80
2023/08/17 05:28:58;;;;;;;19.52;14.35;;;;;;;18.38;100.00;101157.75;5028812;28;20062;-79
2023/08/17 05:31:27;;;;;;;17.05;13.98;;;;;;;18.41;100.00;101162.66;5021984;28;20076;-80
2023/08/17 05:33:55;;;;;;;19.35;15.35;;;;;;;18.45;100.00;101161.25;5030569;28;20073;-79
2023/08/17 05:36:22;;;;;;;19.48;14.75;;;;;;;18.49;100.00;101154.53;5028730;28;20046;-82
2023/08/17 05:38:49;;;;;;;19.02;15.57;;;;;;;18.36;100.00;101165.06;5027137;28;20073;-81
2023/08/17 05:41:17;;;;;;;15.10;13.50;;;;;;;18.45;100.00;101169.19;5025148;28;20065;-79
2023/08/17 05:43:44;;;;;;;16.98;13.82;;;;;;;18.49;100.00;101158.00;5021473;28;20069;-80
2023/08/17 05:46:11;;;;;;;18.00;13.82;;;;;;;18.45;100.00;101159.41;5027686;28;20046;-79
2023/08/17 05:48:37;;;;;;;15.63;14.02;;;;;;;18.34;100.00;101165.28;5016322;28;20072;-81
2023/08/17 05:51:28;;;;;;;16.33;13.48;;;;;;;18.43;100.00;101171.25;5031074;28;20094;-84
2023/08/17 05:54:25;;;;;;;18.00;13.90;;;;;;;18.31;100.00;101141.00;5033682;28;20064;-80
2023/08/17 05:57:09;;;;;;;15.57;13.77;;;;;;;18.53;100.00;101161.09;5012558;28;20060;-81
2023/08/17 06:03:23;;;;;;;17.38;14.50;;;;;;;18.46;100.00;101154.94;5027636;28;20050;-83
2023/08/17 06:06:02;;;;;;;18.85;14.07;;;;;;;18.40;100.00;101155.72;5021639;28;20061;-80
2023/08/17 06:08:30;;;;;;;15.98;14.25;;;;;;;18.48;100.00;101163.50;5021707;28;20140;-80
2023/08/17 06:10:58;;;;;;;16.65;14.68;;;;;;;18.56;100.00;101168.66;5025401;28;20081;-81
2023/08/17 06:13:24;;;;;;;19.77;15.15;;;;;;;18.57;100.00;101146.44;5018240;28;20058;-78
2023/08/17 06:15:51;;;;;;;16.27;13.95;;;;;;;18.75;100.00;101170.63;5016649;28;20049;-79
2023/08/17 06:18:18;;;;;;;18.30;14.00;;;;;;;18.79;100.00;101155.16;5010129;28;20686;-80
2023/08/17 06:20:46;;;;;;;15.60;12.65;;;;;;;18.95;100.00;101160.09;5015315;28;20057;-80
2023/08/17 06:23:12;;;;;;;18.15;13.57;;;;;;;18.89;100.00;101147.66;5025172;28;20049;-80
2023/08/17 06:25:43;;;;;;;18.83;13.73;;;;;;;18.90;100.00;101155.38;5025496;28;20054;-79
2023/08/17 06:28:10;;;;;;;15.85;13.93;;;;;;;18.99;100.00;101147.25;5024657;28;20145;-79
2023/08/17 06:30:36;;;;;;;14.60;13.10;;;;;;;18.93;100.00;101151.53;5019344;28;20068;-78
2023/08/17 06:33:04;;;;;;;16.23;12.85;;;;;;;19.01;100.00;101163.78;5025369;28;20057;-79
2023/08/17 06:35:31;;;;;;;14.98;13.38;;;;;;;19.06;100.00;101158.72;5024618;28;20054;-79
2023/08/17 06:37:58;;;;;;;16.33;14.13;;;;;;;18.99;100.00;101160.53;5024057;28;20077;-79
2023/08/17 06:40:24;;;;;;;15.18;13.65;;;;;;;19.06;100.00;101158.72;5017188;28;20050;-80
2023/08/17 06:42:54;;;;;;;14.48;13.00;;;;;;;19.01;100.00;101163.78;5024794;28;20476;-81
2023/08/17 06:45:22;;;;;;;14.32;12.82;;;;;;;19.04;100.00;101168.69;5024409;28;20148;-80
2023/08/17 06:47:49;;;;;;;15.57;13.80;;;;;;;18.97;100.00;101166.03;5024748;28;20060;-81
2023/08/17 06:50:16;;;;;;;14.63;12.55;;;;;;;19.11;100.00;101158.94;5024189;28;20133;-81
2023/08/17 06:52:42;;;;;;;19.38;12.95;;;;;;;19.10;100.00;101159.97;5024895;28;20109;-80
2023/08/17 06:55:10;;;;;;;14.48;12.52;;;;;;;19.32;100.00;101158.00;5023190;28;20078;-79
2023/08/17 06:57:36;;;;;;;14.50;12.93;;;;;;;19.32;100.00;101150.03;5017608;28;20066;-79
2023/08/17 07:00:06;;;;;;;14.43;12.98;;;;;;;19.33;100.00;101157.78;5023576;28;20069;-81
2023/08/17 07:02:34;;;;;;;14.07;12.52;;;;;;;19.59;100.00;101157.03;5016642;28;20056;-81
2023/08/17 07:05:00;;;;;;;14.48;12.88;;;;;;;19.61;100.00;101151.53;5023114;28;20053;-81
2023/08/17 07:07:27;;;;;;;14.30;11.70;;;;;;;19.79;100.00;101146.44;5022575;28;20085;-80
2023/08/17 07:09:53;;;;;;;14.95;12.90;;;;;;;19.85;100.00;101134.97;5024504;28;20116;-80
2023/08/17 07:12:20;;;;;;;19.10;15.07;;;;;;;19.85;100.00;101150.91;5014923;28;20085;-78
2023/08/17 07:14:47;;;;;;;13.45;12.15;;;;;;;19.89;100.00;101152.97;5020501;28;20113;-80
2023/08/17 07:17:15;;;;;;;15.47;12.90;;;;;;;19.82;100.00;101151.34;5023303;28;19957;-79
2023/08/17 07:19:41;;;;;;;13.60;12.20;;;;;;;19.74;100.00;101157.69;5023686;28;20071;-81
2023/08/17 07:22:08;;;;;;;13.40;12.00;;;;;;;19.78;100.00;101163.41;5024160;28;20053;-81
2023/08/17 07:24:35;;;;;;;15.13;12.40;;;;;;;19.80;100.00;101170.16;5018711;28;20074;-80
2023/08/17 07:27:01;;;;;;;13.82;12.07;;;;;;;19.90;100.00;101167.06;5014376;28;20058;-81
2023/08/17 07:29:28;;;;;;;13.52;12.13;;;;;;;20.03;100.00;101172.38;5023378;28;20133;-82
2023/08/17 07:31:54;;;;;;;;;;;;;;;20.05;100.00;101165.03;5023939;28;20078;-82
2023/08/17 07:34:22;;;;;;;15.10;12.70;;;;;;;19.85;100.00;101167.66;5016194;28;20082;-82
2023/08/17 07:36:49;;;;;;;;;;;;;;;20.08;100.00;101177.09;5024102;28;20090;-81
2023/08/17 07:39:15;;;;;;;;;;;;;;;20.17;100.00;101176.66;5023865;28;20109;-81
2023/08/17 07:41:41;;;;;;;;;;;;;;;20.34;100.00;101170.91;5022716;28;20494;-81
2023/08/17 07:44:08;;;;;;;;;;;;;;;20.42;100.00;101171.53;5017812;28;19967;-79
2023/08/17 07:46:34;;;;;;;;;;;;;;;20.45;100.00;101171.13;5015842;28;19991;-81
2023/08/17 07:49:00;;;;;;;;;;;;;;;20.37;100.00;101175.81;5021709;28;24106;-81
2023/08/17 07:51:29;;;;;;;;;;;;;;;20.31;100.00;101176.66;5022273;28;25153;-80
2023/08/17 07:53:56;;;;;;;;;;;;;;;20.37;100.00;101186.44;5022158;28;19930;-81
2023/08/17 07:56:42;;;;;;;;;;;;;;;20.31;100.00;101184.63;5017711;28;19925;-82
2023/08/17 07:59:13;;;;;;;;;;;;;;;20.39;100.00;101182.59;5015024;28;20131;-81
2023/08/17 08:01:39;;;;;;;;;;;;;;;20.40;100.00;101194.84;5019033;28;19921;-79
2023/08/17 08:04:06;;;;;;;;;;;;;;;20.56;100.00;101190.13;5015138;28;19929;-80
2023/08/17 08:06:36;;;;;;;18.33;14.90;;;;;;;20.62;100.00;101195.44;5021580;28;20027;-81
2023/08/17 08:09:02;;;;;;;14.60;13.10;;;;;;;20.60;100.00;101197.47;5018413;28;19921;-81
2023/08/17 08:11:30;;;;;;;18.40;15.55;;;;;;;20.41;100.00;101191.16;5022934;28;20250;-80
2023/08/17 08:13:57;;;;;;;17.20;15.40;;;;;;;20.39;100.00;101200.38;5022379;28;20080;-82
2023/08/17 08:16:23;;;;;;;;;;;;;;;20.34;100.00;101194.81;5014652;28;20060;-77
2023/08/17 08:18:50;;;;;;;17.70;15.00;;;;;;;20.32;100.00;101196.91;5019148;28;20086;-81
2023/08/17 08:21:17;;;;;;;18.05;14.60;;;;;;;20.37;100.00;101202.38;5021326;28;20057;-79
2023/08/17 08:23:47;;;;;;;17.15;15.20;;;;;;;20.40;100.00;101199.34;5025453;28;20516;-80
2023/08/17 08:26:13;;;;;;;18.80;14.98;;;;;;;20.40;100.00;101186.88;5023838;28;20104;-79
2023/08/17 08:28:40;;;;;;;19.60;16.08;;;;;;;20.40;100.00;101184.22;5024029;28;20129;-82
2023/08/17 08:31:07;;;;;;;22.48;16.40;;;;;;;20.25;100.00;101185.47;5028314;28;20492;-80
2023/08/17 08:33:34;;;;;;;24.45;17.55;;;;;;;20.11;100.00;101182.81;5021943;28;20124;-81
2023/08/17 08:36:01;;;;;;;19.35;16.13;;;;;;;20.32;100.00;101186.28;5021252;28;20129;-81
2023/08/17 08:38:29;;;;;;;23.73;17.42;;;;;;;20.48;100.00;101189.31;5026405;28;20133;-80
2023/08/17 08:40:57;;;;;;;21.25;16.98;;;;;;;20.58;100.00;101172.94;5025816;28;20052;-80
2023/08/17 08:43:24;;;;;;;19.33;16.17;;;;;;;20.94;100.00;101171.59;5026501;28;20050;-80
2023/08/17 08:45:52;;;;;;;18.35;16.40;;;;;;;21.19;99.17;101167.19;5024388;28;20046;-79
2023/08/17 08:48:22;;;;;;;19.77;15.73;;;;;;;21.39;97.43;101164.44;5024925;28;20152;-80
2023/08/17 08:50:52;;;;;;;21.73;17.08;;;;;;;21.44;96.16;101162.75;5026685;28;20050;-81
2023/08/17 08:53:25;;;;;;;24.77;18.97;;;;;;;21.20;95.93;101160.84;5026237;28;20049;-81
2023/08/17 08:55:56;;;;;;;26.10;20.15;;;;;;;20.87;97.19;101159.13;5025355;28;20054;-80
2023/08/17 08:58:25;;;;;;;27.05;19.88;;;;;;;20.90;98.13;101171.19;5019505;28;20050;-81
2023/08/17 09:00:54;;;;;;;23.30;18.38;;;;;;;21.09;97.97;101164.16;5024778;28;20125;-82
2023/08/17 09:03:21;;;;;;;;;;;;;;;20.99;97.72;101164.63;5025547;28;20046;-81
2023/08/17 09:05:48;;;;;;;;;;;;;;;20.89;98.07;101161.59;5028318;28;25076;-83
2023/08/17 09:08:16;;;;;;;;;;;;;;;20.79;98.50;101170.03;5022632;28;20032;-81
2023/08/17 09:10:42;;;;;;;;;;;;;;;20.83;99.19;101173.88;5024507;28;19922;-81
2023/08/17 09:13:09;;;;;;;;;;;;;;;20.91;99.46;101175.50;5023635;28;19936;-81
2023/08/17 09:15:37;;;;;;;;;;;;;;;21.23;99.50;101176.41;5024962;28;24078;-81
2023/08/17 09:18:07;;;;;;;;;;;;;;;21.38;97.88;101158.28;5023572;28;19953;-83
2023/08/17 09:20:38;;;;;;;;;;;;;;;21.50;96.87;101159.25;5027237;28;25082;-82
2023/08/17 09:23:05;;;;;;;;;;;;;;;21.37;96.94;101158.50;5024491;28;20152;-82
2023/08/17 09:25:34;;;;;;;;;;;;;;;21.66;96.05;101143.78;5021687;28;19969;-80
2023/08/17 09:28:07;;;;;;;;;;;;;;;21.88;95.23;101141.53;5014450;28;19921;-80
2023/08/17 09:30:33;;;;;;;;;;;;;;;21.80;94.52;101138.13;5019505;28;25130;-79
2023/08/17 09:33:04;;;;;;;;;;;;;;;21.67;94.13;101130.25;5019259;28;20016;-80
2023/08/17 09:35:34;;;;;;;;;;;;;;;21.88;94.42;101141.53;5019428;28;20307;-83
2023/08/17 09:38:00;;;;;;;;;;;;;;;21.91;94.13;101138.44;5020209;28;19979;-84
2023/08/17 09:40:27;;;;;;;;;;;;;;;21.84;93.89;101130.50;5021142;28;19989;-82
2023/08/17 09:42:54;;;;;;;;;;;;;;;21.90;93.83;101134.97;5022413;28;20300;-82
2023/08/17 09:45:21;;;;;;;;;;;;;;;21.95;93.74;101134.31;5020742;28;25076;-81
2023/08/17 09:47:50;;;;;;;;;;;;;;;22.08;92.79;101121.72;5013161;28;19922;-82
2023/08/17 09:50:22;;;;;;;;;;;;;;;22.12;93.03;101133.56;5019459;28;25066;-82
2023/08/17 09:52:48;;;;;;;;;;;;;;;22.11;92.42;101123.94;5016414;28;19921;-81
2023/08/17 09:55:15;;;;;;;;;;;;;;;22.34;92.50;101123.28;5020751;28;20020;-82
2023/08/17 09:57:42;;;;;;;;;;;;;;;22.52;91.57;101120.63;5023307;28;25065;-82
2023/08/17 10:00:09;;;;;;;;;;;;;;;22.63;90.53;101104.94;5021084;28;20012;-79
2023/08/17 10:02:38;;;;;;;;;;;;;;;22.54;89.93;101098.25;5016154;28;19929;-80
2023/08/17 10:05:05;;;;;;;;;;;;;;;22.57;90.02;101113.81;5013966;28;19996;-81
2023/08/17 10:07:36;;;;;;;;;;;;;;;22.28;90.42;101120.69;5013865;28;19947;-79
2023/08/17 10:10:04;;;;;;;;;;;;;;;22.42;91.60;101122.19;5013805;28;20074;-78
2023/08/17 10:12:34;;;;;;;;;;;;;;;22.27;91.55;101121.72;5016586;28;24116;-78
2023/08/17 10:15:03;;;;;;;;;;;;;;;22.39;91.09;101107.44;5018525;28;19921;-81
2023/08/17 10:17:32;;;;;;;;;;;;;;;22.43;91.01;101103.28;5016050;28;25126;-77
2023/08/17 10:19:59;;;;;;;;;;;;;;;22.58;90.85;101110.94;5014907;28;19957;-82
2023/08/17 10:22:29;;;;;;;;;;;;;;;22.77;90.71;101109.03;5021314;28;19921;-78
2023/08/17 10:24:58;;;;;;;;;;;;;;;22.68;90.55;101115.75;5027563;28;25169;-79
2023/08/17 10:27:25;;;;;;;;;;;;;;;22.77;90.59;101115.19;5020907;28;19928;-82
2023/08/17 10:29:51;;;;;;;;;;;;;;;22.58;90.69;101110.94;5019801;28;20119;-81
2023/08/17 10:32:18;;;;;;;;;;;;;;;22.35;91.29;101124.09;5018620;28;19965;-80
2023/08/17 10:34:45;;;;;;;;;;;;;;;22.35;92.35;101126.78;5019838;28;25062;-80
2023/08/17 10:37:12;;;;;;;;;;;;;;;22.45;92.41;101121.75;5019123;28;20346;-81
2023/08/17 10:39:45;;;;;;;;;;;;;;;22.50;92.16;101119.22;5018794;28;25112;-80
2023/08/17 10:42:13;;;;;;;;;;;;;;;22.12;92.68;101138.09;5015510;28;20307;-79
2023/08/17 10:44:41;;;;;;;;;;;;;;;22.25;92.75;101129.94;5017858;28;19925;-80
2023/08/17 10:47:23;;;;;;;;;;;;;;;22.03;93.67;101137.56;5015377;28;19922;-82
2023/08/17 10:49:50;;;;;;;;;;;;;;;21.68;94.52;101131.88;5017241;28;19973;-81
2023/08/17 10:52:25;;;;;;;;;;;;;;;21.79;95.26;101133.81;5014987;28;25117;-79
2023/08/17 10:54:51;;;;;;;;;;;;;;;21.90;94.81;101131.47;5016660;28;19983;-80
2023/08/17 10:57:35;;;;;;;;;;;;;;;22.02;95.69;101143.91;5015240;28;19967;-81
2023/08/17 11:00:16;;;;;;;;;;;;;;;22.11;94.65;101136.47;5023520;28;19956;-80
2023/08/17 11:02:44;;;;;;;;;;;;;;;22.21;93.70;101119.97;5016270;28;19925;-81
2023/08/17 11:05:12;;;;;;;;;;;;;;;22.15;93.35;101122.47;5016346;28;19925;-80
2023/08/17 11:07:42;;;;;;;;;;;;;;;22.24;93.27;101130.97;5018162;28;19994;-80
2023/08/17 11:10:12;;;;;;;;;;;;;;;22.27;93.35;101135.88;5010152;28;19921;-80
2023/08/17 11:12:41;;;;;;;;;;;;;;;22.28;93.15;101131.34;5018325;28;25075;-80
2023/08/17 11:15:08;;;;;;;;;;;;;;;22.25;93.29;101139.78;5018296;28;19925;-78
2023/08/17 11:17:35;;;;;;;;;;;;;;;22.07;93.97;101140.59;5016468;28;19964;-82
2023/08/17 11:20:04;;;;;;;;;;;;;;;22.13;94.29;101145.06;5027737;28;19960;-81
2023/08/17 11:22:34;;;;;;;;;;;;;;;22.33;94.05;101142.97;5032184;28;19921;-80
2023/08/17 11:25:01;;;;;;;;;;;;;;;22.38;93.26;101134.31;5032370;28;19925;-79
2023/08/17 11:27:33;;;;;;;19.70;16.30;;;;;;;22.18;92.71;101130.03;5032269;28;25054;-80
2023/08/17 11:30:10;;;;;;;19.50;15.75;;;;;;;22.12;93.26;101114.91;5033362;28;20054;-80
2023/08/17 11:32:44;;;;;;;23.92;15.93;;;;;;;22.05;93.59;101116.81;5032829;28;20053;-79
2023/08/17 11:35:11;;;;;;;21.65;15.88;;;;;;;22.26;93.57;101125.41;5032503;28;20060;-80
2023/08/17 11:37:46;;;;;;;23.33;15.02;;;;;;;22.30;93.30;101118.63;5025908;28;20041;-78
2023/08/17 11:40:20;;;;;;;20.58;16.13;;;;;;;22.29;93.49;101122.31;5029663;28;20077;-82
2023/08/17 11:42:53;;;;;;;21.08;16.10;;;;;;;22.35;93.41;101116.09;5025670;28;20045;-81